createdAt,value
2022-12-05T00:01:36.439Z,30.15
2022-12-05T00:04:06.791Z,35.08
2022-12-05T00:06:35.408Z,30.08
2022-12-05T00:09:03.054Z,32.30
2022-12-05T00:11:33.092Z,32.80
2022-12-05T00:14:01.822Z,29.27
2022-12-05T00:16:31.772Z,31.50
2022-12-05T00:19:02.489Z,33.70
2022-12-05T00:21:31.989Z,25.33
2022-12-05T00:24:00.477Z,33.95
2022-12-05T00:26:28.858Z,28.65
2022-12-05T00:28:57.308Z,29.95
2022-12-05T00:31:25.763Z,27.55
2022-12-05T00:33:53.615Z,31.80
2022-12-05T00:36:23.215Z,32.58
2022-12-05T00:38:50.944Z,35.75
2022-12-05T00:41:20.621Z,34.10
2022-12-05T00:43:48.199Z,33.53
2022-12-05T00:46:18.408Z,25.67
2022-12-05T00:48:46.206Z,26.30
2022-12-05T00:51:15.883Z,29.83
2022-12-05T00:53:43.767Z,30.67
2022-12-05T00:56:16.805Z,34.72
2022-12-05T00:58:44.618Z,30.90
2022-12-05T01:01:16.574Z,27.00
2022-12-05T01:03:45.028Z,29.90
2022-12-05T01:06:13.176Z,27.55
2022-12-05T01:08:40.703Z,30.52
2022-12-05T01:11:09.514Z,30.27
2022-12-05T01:13:37.133Z,26.60
2022-12-05T01:16:05.335Z,30.35
2022-12-05T01:18:32.681Z,32.25
2022-12-05T01:21:00.519Z,27.38
2022-12-05T01:23:27.379Z,29.98
2022-12-05T01:25:55.203Z,26.48
2022-12-05T01:28:22.594Z,26.75
2022-12-05T01:30:50.820Z,27.77
2022-12-05T01:33:18.803Z,24.08
2022-12-05T01:35:46.590Z,32.22
2022-12-05T01:38:14.120Z,38.05
2022-12-05T01:40:42.127Z,27.48
2022-12-05T01:43:16.126Z,26.25
2022-12-05T01:45:45.495Z,35.00
2022-12-05T01:48:19.002Z,28.38
2022-12-05T01:50:48.253Z,30.10
2022-12-05T01:53:16.310Z,26.88
2022-12-05T01:55:45.188Z,22.42
2022-12-05T01:58:13.164Z,28.67
2022-12-05T02:00:40.781Z,36.35
2022-12-05T02:03:10.313Z,24.48
2022-12-05T02:05:38.396Z,23.25
2022-12-05T02:08:07.526Z,28.30
2022-12-05T02:10:39.759Z,24.17
2022-12-05T02:13:26.944Z,26.52
2022-12-05T02:16:02.232Z,28.85
2022-12-05T02:18:49.236Z,24.95
2022-12-05T02:21:29.141Z,26.83
2022-12-05T02:24:00.904Z,27.40
2022-12-05T02:26:35.006Z,30.42
2022-12-05T02:29:21.255Z,24.35
2022-12-05T02:32:07.603Z,29.75
2022-12-05T02:34:37.492Z,26.63
2022-12-05T02:37:23.797Z,27.02
2022-12-05T02:40:01.252Z,26.50
2022-12-05T02:42:32.698Z,21.73
2022-12-05T02:45:07.136Z,19.90
2022-12-05T02:47:36.895Z,26.50
2022-12-05T02:50:04.839Z,34.75
2022-12-05T02:52:33.648Z,27.27
2022-12-05T02:55:00.967Z,27.95
2022-12-05T02:57:28.680Z,24.55
2022-12-05T02:59:56.363Z,30.77
2022-12-05T03:02:29.084Z,28.02
2022-12-05T03:04:58.761Z,29.63
2022-12-05T03:07:27.675Z,27.65
2022-12-05T03:09:57.406Z,34.25
2022-12-05T03:12:38.619Z,28.38
2022-12-05T03:15:12.133Z,34.20
2022-12-05T03:17:48.054Z,32.28
2022-12-05T03:20:24.119Z,29.60
2022-12-05T03:22:59.891Z,27.10
2022-12-05T03:25:31.267Z,23.40
2022-12-05T03:28:03.640Z,31.58
2022-12-05T03:30:31.643Z,27.05
2022-12-05T03:33:06.519Z,26.08
2022-12-05T03:35:37.569Z,30.70
2022-12-05T03:38:14.061Z,36.33
2022-12-05T03:41:16.877Z,24.65
2022-12-05T03:43:56.545Z,21.65
2022-12-05T03:46:41.655Z,24.75
2022-12-05T03:49:09.309Z,22.48
2022-12-05T03:51:43.151Z,21.92
2022-12-05T03:54:16.904Z,27.02
2022-12-05T03:56:46.619Z,25.98
2022-12-05T03:59:21.206Z,26.88
2022-12-05T04:01:49.901Z,26.30
2022-12-05T04:04:23.356Z,26.52
2022-12-05T04:06:51.357Z,29.88
2022-12-05T04:09:21.801Z,29.30
2022-12-05T04:11:52.881Z,26.13
2022-12-05T04:14:25.875Z,30.80
2022-12-05T04:17:15.926Z,24.63
2022-12-05T04:20:08.383Z,32.08
2022-12-05T04:22:37.009Z,28.77
2022-12-05T04:25:24.807Z,27.33
2022-12-05T04:28:04.273Z,25.02
2022-12-05T04:30:41.014Z,32.25
2022-12-05T04:33:11.578Z,24.27
2022-12-05T04:35:46.177Z,30.58
2022-12-05T04:38:21.191Z,29.58
2022-12-05T04:40:53.446Z,30.13
2022-12-05T04:43:21.409Z,26.92
2022-12-05T04:45:50.017Z,26.05
2022-12-05T04:48:18.381Z,23.98
2022-12-05T04:50:47.420Z,26.45
2022-12-05T04:53:15.205Z,28.02
2022-12-05T04:55:44.980Z,29.27
2022-12-05T04:58:14.157Z,28.73
2022-12-05T05:00:47.732Z,23.83
2022-12-05T05:05:46.056Z,30.27
2022-12-05T05:08:17.307Z,28.38
2022-12-05T05:10:52.812Z,29.48
2022-12-05T05:13:20.178Z,26.52
2022-12-05T05:15:47.790Z,24.70
2022-12-05T05:18:15.088Z,27.40
2022-12-05T05:20:42.925Z,31.55
2022-12-05T05:23:10.342Z,23.80
2022-12-05T05:25:37.459Z,28.10
2022-12-05T05:28:04.866Z,31.00
2022-12-05T05:30:32.601Z,26.95
2022-12-05T05:33:00.719Z,29.20
2022-12-05T05:35:28.164Z,29.38
2022-12-05T05:37:55.426Z,34.83
2022-12-05T05:40:22.944Z,31.17
2022-12-05T05:42:51.109Z,26.63
2022-12-05T05:45:18.674Z,29.13
2022-12-05T05:47:46.532Z,24.42
2022-12-05T05:50:20.899Z,26.67
2022-12-05T05:52:48.900Z,33.40
2022-12-05T05:55:16.588Z,26.45
2022-12-05T05:57:43.892Z,31.42
2022-12-05T06:00:11.861Z,27.92
2022-12-05T06:02:39.326Z,28.08
2022-12-05T06:05:07.728Z,26.42
2022-12-05T06:07:35.105Z,24.90
2022-12-05T06:10:02.772Z,38.05
2022-12-05T06:12:30.182Z,25.42
2022-12-05T06:14:58.052Z,28.02
2022-12-05T06:17:25.351Z,33.63
2022-12-05T06:19:53.063Z,33.00
2022-12-05T06:22:20.334Z,33.45
2022-12-05T06:24:47.925Z,27.98
2022-12-05T06:27:15.253Z,32.10
2022-12-05T06:29:43.186Z,28.85
2022-12-05T06:32:10.554Z,28.52
2022-12-05T06:34:38.182Z,27.48
2022-12-05T06:37:05.554Z,33.97
2022-12-05T06:39:33.201Z,29.27
2022-12-05T06:42:01.276Z,32.30
2022-12-05T06:44:29.149Z,30.90
2022-12-05T06:46:56.782Z,33.53
2022-12-05T06:49:31.646Z,28.98
2022-12-05T06:52:01.055Z,31.02
2022-12-05T06:54:28.608Z,34.40
2022-12-05T06:56:56.125Z,29.58
2022-12-05T06:59:23.601Z,36.13
2022-12-05T07:01:51.455Z,27.38
2022-12-05T07:04:24.661Z,34.00
2022-12-05T07:06:52.885Z,27.27
2022-12-05T07:09:22.136Z,27.80
2022-12-05T07:11:50.404Z,33.25
2022-12-05T07:14:45.798Z,25.65
2022-12-05T07:17:06.023Z,28.83
2022-12-05T07:19:33.621Z,32.33
2022-12-05T07:22:00.549Z,30.80
2022-12-05T07:24:28.529Z,31.10
2022-12-05T07:26:55.867Z,31.48
2022-12-05T07:29:23.289Z,31.95
2022-12-05T07:31:50.823Z,28.45
2022-12-05T07:34:18.909Z,37.42
2022-12-05T07:36:45.891Z,26.52
2022-12-05T07:39:13.647Z,27.48
2022-12-05T07:41:40.540Z,26.05
2022-12-05T07:44:08.912Z,35.42
2022-12-05T07:46:36.256Z,29.63
2022-12-05T07:49:04.164Z,27.33
2022-12-05T07:51:31.697Z,29.33
2022-12-05T07:54:00.029Z,31.02
2022-12-05T07:56:27.272Z,35.10
2022-12-05T07:58:54.986Z,30.90
2022-12-05T08:01:24.030Z,30.75
2022-12-05T08:03:53.472Z,31.55
2022-12-05T08:06:22.450Z,32.40
2022-12-05T08:08:51.300Z,32.67
2022-12-05T08:11:49.582Z,27.02
2022-12-05T08:14:20.092Z,30.67
2022-12-05T08:16:47.575Z,30.25
2022-12-05T08:19:17.149Z,33.28
2022-12-05T08:21:44.612Z,32.85
2022-12-05T08:24:12.627Z,34.47
2022-12-05T08:26:40.509Z,29.55
2022-12-05T08:29:10.073Z,31.13
2022-12-05T08:31:40.315Z,38.33
2022-12-05T08:34:08.054Z,31.33
2022-12-05T08:36:35.383Z,30.02
2022-12-05T08:39:06.204Z,33.67
2022-12-05T08:41:34.213Z,30.95
2022-12-05T08:44:04.176Z,25.65
2022-12-05T08:46:35.255Z,33.03
2022-12-05T08:49:04.327Z,35.78
2022-12-05T08:51:31.859Z,27.77
2022-12-05T08:53:59.732Z,28.73
2022-12-05T08:56:27.713Z,32.58
2022-12-05T08:59:03.025Z,29.05
2022-12-05T09:01:33.547Z,31.30
2022-12-05T09:04:02.627Z,30.50
2022-12-05T09:06:30.332Z,32.10
2022-12-05T09:09:02.723Z,30.70
2022-12-05T09:11:31.423Z,34.13
2022-12-05T09:13:59.760Z,29.40
2022-12-05T09:16:35.146Z,37.30
2022-12-05T09:19:04.582Z,30.70
2022-12-05T09:21:32.331Z,34.30
2022-12-05T09:24:01.108Z,31.00
2022-12-05T09:26:30.315Z,32.55
2022-12-05T09:28:58.563Z,35.67
2022-12-05T09:31:27.537Z,85.90
2022-12-05T09:33:55.473Z,53.42
2022-12-05T09:36:28.613Z,35.15
2022-12-05T09:38:57.279Z,46.15
2022-12-05T09:41:46.261Z,58.55
2022-12-05T09:44:22.605Z,42.38
2022-12-05T09:46:55.720Z,40.90
2022-12-05T09:49:24.228Z,35.20
2022-12-05T09:51:55.458Z,32.95
2022-12-05T09:54:24.931Z,34.85
2022-12-05T09:56:53.334Z,27.98
2022-12-05T09:59:21.389Z,41.30
2022-12-05T10:02:12.337Z,38.53
2022-12-05T10:05:03.522Z,34.40
2022-12-05T10:07:33.574Z,39.22
2022-12-05T10:10:01.246Z,32.78
2022-12-05T10:12:43.073Z,34.58
2022-12-05T10:15:22.699Z,33.08
2022-12-05T10:18:10.346Z,32.53
2022-12-05T10:20:45.683Z,28.65
2022-12-05T10:23:34.510Z,26.95
2022-12-05T10:26:06.381Z,30.85
2022-12-05T10:28:42.751Z,35.13
2022-12-05T10:31:12.346Z,32.50
2022-12-05T10:33:45.916Z,35.38
2022-12-05T10:36:14.284Z,39.03
2022-12-05T10:38:43.487Z,31.45
2022-12-05T10:41:13.010Z,28.30
2022-12-05T10:43:41.697Z,31.70
2022-12-05T10:46:15.478Z,32.50
2022-12-05T10:48:44.494Z,28.45
2022-12-05T10:51:18.856Z,32.20
2022-12-05T10:53:51.690Z,34.03
2022-12-05T10:56:38.243Z,38.60
2022-12-05T10:59:05.818Z,30.40
2022-12-05T11:01:34.288Z,33.88
2022-12-05T11:04:12.033Z,29.15
2022-12-05T11:06:49.676Z,37.13
2022-12-05T11:09:27.759Z,32.17
2022-12-05T11:12:02.294Z,38.58
2022-12-05T11:14:30.008Z,31.88
2022-12-05T11:16:58.949Z,35.25
2022-12-05T11:19:31.241Z,38.28
2022-12-05T11:22:00.005Z,31.67
2022-12-05T11:24:34.615Z,63.35
2022-12-05T11:27:18.185Z,50.67
2022-12-05T11:29:53.964Z,40.88
2022-12-05T11:32:27.798Z,42.45
2022-12-05T11:35:08.642Z,35.78
2022-12-05T11:37:50.213Z,36.92
2022-12-05T11:40:25.241Z,34.88
2022-12-05T11:43:09.313Z,37.25
2022-12-05T11:45:56.958Z,35.60
2022-12-05T11:48:32.930Z,35.55
2022-12-05T11:51:03.111Z,33.17
2022-12-05T11:53:50.368Z,48.45
2022-12-05T11:56:36.382Z,35.33
2022-12-05T11:59:22.986Z,35.72
2022-12-05T12:01:51.841Z,39.03
2022-12-05T12:04:37.994Z,33.72
2022-12-05T12:07:08.308Z,35.33
2022-12-05T12:09:35.912Z,38.13
2022-12-05T12:12:21.792Z,40.35
2022-12-05T12:14:50.859Z,33.90
2022-12-05T12:17:45.945Z,34.70
2022-12-05T12:20:22.742Z,38.05
2022-12-05T12:22:50.080Z,44.83
2022-12-05T12:25:35.997Z,40.00
2022-12-05T12:28:21.801Z,64.72
2022-12-05T12:31:28.356Z,40.53
2022-12-05T12:33:55.798Z,49.78
2022-12-05T12:36:23.341Z,48.38
2022-12-05T12:39:04.494Z,43.17
2022-12-05T12:41:57.129Z,43.53
2022-12-05T12:44:24.444Z,36.55
2022-12-05T12:46:59.373Z,59.80
2022-12-05T12:49:47.083Z,46.22
2022-12-05T12:52:19.046Z,50.45
2022-12-05T12:55:04.688Z,71.55
2022-12-05T12:57:41.041Z,72.15
2022-12-05T13:00:18.620Z,67.15
2022-12-05T13:02:51.494Z,46.00
2022-12-05T13:05:19.549Z,40.33
2022-12-05T13:08:02.728Z,55.15
2022-12-05T13:10:36.502Z,44.72
2022-12-05T13:13:06.158Z,56.33
2022-12-05T13:15:41.085Z,55.50
2022-12-05T13:18:22.368Z,57.20
2022-12-05T13:20:54.815Z,47.97
2022-12-05T13:23:25.636Z,74.30
2022-12-05T13:25:55.207Z,51.65
2022-12-05T13:28:32.234Z,49.80
2022-12-05T13:31:04.880Z,46.35
2022-12-05T13:33:35.975Z,52.10
2022-12-05T13:36:30.191Z,56.20
2022-12-05T13:39:18.667Z,40.97
2022-12-05T13:42:15.874Z,52.50
2022-12-05T13:44:43.882Z,41.75
2022-12-05T13:47:40.523Z,48.55
2022-12-05T13:50:18.280Z,44.63
2022-12-05T13:52:45.562Z,44.25
2022-12-05T13:55:39.492Z,42.85
2022-12-05T13:58:24.797Z,47.00
2022-12-05T14:01:28.064Z,42.70
2022-12-05T14:03:58.609Z,45.08
2022-12-05T14:06:51.921Z,41.88
2022-12-05T14:09:19.230Z,27.93
2022-12-05T14:12:12.220Z,46.22
2022-12-05T14:14:57.558Z,41.33
2022-12-05T14:17:27.904Z,55.47
2022-12-05T14:19:58.537Z,52.85
2022-12-05T14:22:34.729Z,42.65
2022-12-05T14:25:23.066Z,45.95
2022-12-05T14:27:56.750Z,40.55
2022-12-05T14:30:30.201Z,49.08
2022-12-05T14:33:01.989Z,45.47
2022-12-05T14:35:41.110Z,48.65
2022-12-05T14:38:19.201Z,50.22
2022-12-05T14:40:47.393Z,49.53
2022-12-05T14:43:27.058Z,50.08
2022-12-05T14:46:02.251Z,47.92
2022-12-05T14:48:36.575Z,41.92
2022-12-05T14:51:23.925Z,51.75
2022-12-05T14:53:51.497Z,48.58
2022-12-05T14:56:24.794Z,50.03
2022-12-05T14:59:09.677Z,53.58
2022-12-05T15:01:50.121Z,44.38
2022-12-05T15:04:43.599Z,46.40
2022-12-05T15:07:26.274Z,41.80
2022-12-05T15:10:07.473Z,48.55
2022-12-05T15:12:50.072Z,47.30
2022-12-05T15:15:22.486Z,53.80
2022-12-05T15:17:52.223Z,55.25
2022-12-05T15:20:47.583Z,45.17
2022-12-05T15:23:46.727Z,53.40
2022-12-05T15:29:25.566Z,54.15
2022-12-05T15:32:07.170Z,49.72
2022-12-05T15:34:37.147Z,52.38
2022-12-05T15:37:22.108Z,54.95
2022-12-05T15:39:53.745Z,56.85
2022-12-05T15:42:29.970Z,51.10
2022-12-05T15:45:23.492Z,63.63
2022-12-05T15:48:11.654Z,85.75
2022-12-05T15:50:43.106Z,131.00
2022-12-05T15:53:31.903Z,161.05
2022-12-05T15:56:13.174Z,84.25
2022-12-05T15:58:49.348Z,159.25
2022-12-05T16:01:16.748Z,73.70
2022-12-05T16:03:44.761Z,123.25
2022-12-05T16:06:17.629Z,136.07
2022-12-05T16:11:16.834Z,69.10
2022-12-05T16:13:47.733Z,59.25
2022-12-05T16:16:21.812Z,71.82
2022-12-05T16:19:03.953Z,68.95
2022-12-05T16:21:38.937Z,72.43
2022-12-05T16:24:07.449Z,53.08
2022-12-05T16:26:39.818Z,68.85
2022-12-05T16:29:24.619Z,49.25
2022-12-05T16:31:58.227Z,54.13
2022-12-05T16:34:27.178Z,62.95
2022-12-05T16:36:55.899Z,59.95
2022-12-05T16:39:23.914Z,65.68
2022-12-05T16:41:51.389Z,68.57
2022-12-05T16:44:28.411Z,73.22
2022-12-05T16:46:56.468Z,62.88
2022-12-05T16:49:24.313Z,59.33
2022-12-05T16:52:02.546Z,51.08
2022-12-05T16:54:30.216Z,58.30
2022-12-05T16:56:58.605Z,58.45
2022-12-05T16:59:37.716Z,47.00
2022-12-05T17:02:06.598Z,50.47
2022-12-05T17:04:34.295Z,64.88
2022-12-05T17:07:01.726Z,89.57
2022-12-05T17:09:29.711Z,60.25
2022-12-05T17:12:01.854Z,55.42
2022-12-05T17:14:29.722Z,53.30
2022-12-05T17:16:57.113Z,72.47
2022-12-05T17:19:24.885Z,51.28
2022-12-05T17:21:52.281Z,56.92
2022-12-05T17:24:20.120Z,92.00
2022-12-05T17:26:47.522Z,108.57
2022-12-05T17:29:15.340Z,113.72
2022-12-05T17:31:42.390Z,68.43
2022-12-05T17:34:13.843Z,62.65
2022-12-05T17:36:41.173Z,69.35
2022-12-05T17:39:09.394Z,64.63
2022-12-05T17:41:37.321Z,68.78
2022-12-05T17:44:05.474Z,73.20
2022-12-05T17:46:32.992Z,77.88
2022-12-05T17:49:00.501Z,65.10
2022-12-05T17:51:28.817Z,100.45
2022-12-05T17:53:55.903Z,65.97
2022-12-05T17:56:23.456Z,69.30
2022-12-05T17:58:50.820Z,60.78
2022-12-05T18:01:19.589Z,56.13
2022-12-05T18:03:47.668Z,55.40
2022-12-05T18:06:15.524Z,57.95
2022-12-05T18:08:44.951Z,66.97
2022-12-05T18:11:13.034Z,57.92
2022-12-05T18:13:40.559Z,61.42
2022-12-05T18:16:08.543Z,56.58
2022-12-05T18:18:36.163Z,56.53
2022-12-05T18:21:11.522Z,65.60
2022-12-05T18:23:40.403Z,62.28
2022-12-05T18:26:09.261Z,63.40
2022-12-05T18:28:37.376Z,63.75
2022-12-05T18:31:06.318Z,55.80
2022-12-05T18:33:33.273Z,57.15
2022-12-05T18:36:04.641Z,61.05
2022-12-05T18:38:32.006Z,65.22
2022-12-05T18:41:00.452Z,62.78
2022-12-05T18:43:27.794Z,72.70
2022-12-05T18:45:56.581Z,56.60
2022-12-05T18:48:38.797Z,53.40
2022-12-05T18:51:12.271Z,55.33
2022-12-05T18:53:40.076Z,52.72
2022-12-05T18:56:25.888Z,55.05
2022-12-05T18:59:02.527Z,49.85
2022-12-05T19:01:30.866Z,75.85
2022-12-05T19:03:58.939Z,64.05
2022-12-05T19:06:29.892Z,59.10
2022-12-05T19:09:01.390Z,53.53
2022-12-05T19:11:29.722Z,59.13
2022-12-05T19:13:58.749Z,58.63
2022-12-05T19:16:27.483Z,52.65
2022-12-05T19:18:56.018Z,49.25
2022-12-05T19:21:24.668Z,60.92
2022-12-05T19:23:52.081Z,58.13
2022-12-05T19:26:19.766Z,50.70
2022-12-05T19:28:47.079Z,70.60
2022-12-05T19:31:15.628Z,74.38
2022-12-05T19:33:44.731Z,59.20
2022-12-05T19:36:15.003Z,51.78
2022-12-05T19:38:43.420Z,62.60
2022-12-05T19:41:12.185Z,53.15
2022-12-05T19:43:39.933Z,56.00
2022-12-05T19:46:10.852Z,56.63
2022-12-05T19:48:37.913Z,60.67
2022-12-05T19:51:05.916Z,56.83
2022-12-05T19:53:34.738Z,59.45
2022-12-05T19:56:08.879Z,60.13
2022-12-05T19:58:36.784Z,58.28
2022-12-05T20:01:15.317Z,59.65
2022-12-05T20:03:43.363Z,58.15
2022-12-05T20:06:11.487Z,64.43
2022-12-05T20:08:39.272Z,61.20
2022-12-05T20:11:09.239Z,54.92
2022-12-05T20:13:52.523Z,58.22
2022-12-05T20:16:21.709Z,54.75
2022-12-05T20:18:49.731Z,60.35
2022-12-05T20:21:19.636Z,58.25
2022-12-05T20:23:46.977Z,55.80
2022-12-05T20:26:30.164Z,56.08
2022-12-05T20:28:58.741Z,59.42
2022-12-05T20:31:27.983Z,57.28
2022-12-05T20:33:55.608Z,52.08
2022-12-05T20:36:25.730Z,53.17
2022-12-05T20:38:56.653Z,59.65
2022-12-05T20:41:24.468Z,58.65
2022-12-05T20:43:57.294Z,56.22
2022-12-05T20:48:53.313Z,57.00
2022-12-05T20:51:26.289Z,58.33
2022-12-05T20:53:53.684Z,60.72
2022-12-05T20:56:23.115Z,55.45
2022-12-05T20:58:52.414Z,63.17
2022-12-05T21:01:21.103Z,57.25
2022-12-05T21:03:49.804Z,60.33
2022-12-05T21:06:19.862Z,61.50
2022-12-05T21:08:46.902Z,68.25
2022-12-05T21:11:33.266Z,58.20
2022-12-05T21:14:00.738Z,58.28
2022-12-05T21:16:28.799Z,69.68
2022-12-05T21:18:56.347Z,128.90
2022-12-05T21:21:25.941Z,96.57
2022-12-05T21:23:58.868Z,74.50
2022-12-05T21:26:28.443Z,71.13
2022-12-05T21:28:55.909Z,61.55
2022-12-05T21:31:26.283Z,66.18
2022-12-05T21:33:56.081Z,69.15
2022-12-05T21:36:25.043Z,56.08
2022-12-05T21:38:55.956Z,75.88
2022-12-05T21:41:25.350Z,58.15
2022-12-05T21:43:55.294Z,53.55
2022-12-05T21:46:24.476Z,66.60
2022-12-05T21:48:51.998Z,54.25
2022-12-05T21:51:20.064Z,75.78
2022-12-05T21:53:47.351Z,63.28
2022-12-05T21:56:16.767Z,64.47
2022-12-05T21:58:45.487Z,73.72
2022-12-05T22:01:24.473Z,60.13
2022-12-05T22:03:54.049Z,59.83
2022-12-05T22:06:21.652Z,55.60
2022-12-05T22:08:49.079Z,54.65
2022-12-05T22:11:19.328Z,59.88
2022-12-05T22:13:47.450Z,54.88
2022-12-05T22:16:15.444Z,54.80
2022-12-05T22:18:42.611Z,65.43
2022-12-05T22:21:15.875Z,62.15
2022-12-05T22:23:43.370Z,64.20
2022-12-05T22:26:13.433Z,62.17
2022-12-05T22:28:40.627Z,66.13
2022-12-05T22:31:10.676Z,66.53
2022-12-05T22:33:38.237Z,67.75
2022-12-05T22:36:07.949Z,68.55
2022-12-05T22:38:37.286Z,69.50
2022-12-05T22:41:07.298Z,64.57
2022-12-05T22:43:36.527Z,62.85
2022-12-05T22:46:09.797Z,53.90
2022-12-05T22:48:36.985Z,73.03
2022-12-05T22:51:05.940Z,61.80
2022-12-05T22:53:33.134Z,63.05
2022-12-05T22:56:07.512Z,67.70
2022-12-05T22:58:34.702Z,63.70
2022-12-05T23:01:15.990Z,65.78
2022-12-05T23:03:44.870Z,61.15
2022-12-05T23:06:13.996Z,53.83
2022-12-05T23:08:42.574Z,66.55
2022-12-05T23:11:11.421Z,65.50
2022-12-05T23:13:39.742Z,63.53
2022-12-05T23:16:09.844Z,56.40
2022-12-05T23:18:46.800Z,57.35
2022-12-05T23:21:29.800Z,53.83
2022-12-05T23:23:59.924Z,59.00
2022-12-05T23:26:42.523Z,57.10
2022-12-05T23:29:12.040Z,53.70
2022-12-05T23:31:40.248Z,61.78
2022-12-05T23:34:07.590Z,58.60
2022-12-05T23:36:35.737Z,64.38
2022-12-05T23:39:03.689Z,55.88
2022-12-05T23:41:31.036Z,64.47
2022-12-05T23:43:58.491Z,54.63
2022-12-05T23:46:27.959Z,63.15
2022-12-05T23:48:56.010Z,55.85
2022-12-05T23:51:27.244Z,60.90
2022-12-05T23:53:57.899Z,57.70
2022-12-05T23:56:28.390Z,57.08
2022-12-05T23:58:56.309Z,59.70
